Villa Angelica, Puerto Rico
Current Conditions -  °F | °C
As of 1:50 PM on Tuesday 21 Oct 2014 (Local Time) from TJBQ Reporting Station
Scattered Clouds Scattered Clouds  
Wind Chill: 88°   Ceiling: Unl
Heat Index: 96°   Visibility: 10mi
Dew Point: 73°   Wind: 16mph
Humidity: 62%   Direction: 40°NE
Pressure: 29.92"   Gusts: NA
Location:  18.2038°N, 67.1453°W
Report Text: TJBQ 211750Z 04014KT 10SM SCT090 31/23 A2992 RMK RWY08 - ATIS Y
Loading
Personal Weather Stations






























Interactive Weather Map
Tropical Storm Tracking
New forecast layout! Learn more

10-Day Weather Forecast

Advertisements
Track Severe Weather on mobile